createdAt,value
2019-02-22T00:00:49.727Z,7.72
2019-02-22T00:03:18.149Z,7.65
2019-02-22T00:05:46.567Z,7.05
2019-02-22T00:08:14.994Z,7.40
2019-02-22T00:10:43.394Z,7.17
2019-02-22T00:13:11.858Z,6.87
2019-02-22T00:15:40.263Z,7.20
2019-02-22T00:18:08.738Z,6.62
2019-02-22T00:20:37.184Z,7.08
2019-02-22T00:23:05.587Z,6.70
2019-02-22T00:25:34.084Z,7.58
2019-02-22T00:28:02.523Z,7.03
2019-02-22T00:30:30.964Z,7.00
2019-02-22T00:32:59.396Z,6.85
2019-02-22T00:35:27.822Z,7.22
2019-02-22T00:37:56.214Z,7.37
2019-02-22T00:40:24.639Z,6.60
2019-02-22T00:42:53.050Z,6.95
2019-02-22T00:45:21.490Z,6.75
2019-02-22T00:47:49.912Z,6.47
2019-02-22T00:50:18.302Z,6.75
2019-02-22T00:52:46.734Z,6.58
2019-02-22T00:55:15.152Z,6.28
2019-02-22T00:57:43.553Z,6.55
2019-02-22T01:00:12.228Z,7.05
2019-02-22T01:02:40.646Z,7.62
2019-02-22T01:05:09.226Z,7.23
2019-02-22T01:07:37.631Z,6.90
2019-02-22T01:10:06.396Z,7.10
2019-02-22T01:12:34.788Z,6.50
2019-02-22T01:15:03.218Z,6.90
2019-02-22T01:17:31.648Z,6.37
2019-02-22T01:20:00.045Z,6.60
2019-02-22T01:22:28.458Z,6.53
2019-02-22T01:24:56.870Z,7.03
2019-02-22T01:27:25.315Z,6.77
2019-02-22T01:29:53.714Z,6.83
2019-02-22T01:32:22.128Z,6.50
2019-02-22T01:34:50.561Z,6.72
2019-02-22T01:37:18.967Z,6.60
2019-02-22T01:39:47.447Z,6.62
2019-02-22T01:42:15.899Z,7.12
2019-02-22T01:44:44.303Z,6.50
2019-02-22T01:47:12.728Z,6.60
2019-02-22T01:49:41.194Z,6.40
2019-02-22T01:52:09.590Z,6.83
2019-02-22T01:54:38.004Z,6.87
2019-02-22T01:57:06.393Z,6.95
2019-02-22T01:59:34.830Z,6.00
2019-02-22T02:02:03.231Z,6.70
2019-02-22T02:04:31.628Z,6.45
2019-02-22T02:07:00.059Z,6.40
2019-02-22T02:09:28.572Z,6.53
2019-02-22T02:11:56.992Z,6.35
2019-02-22T02:14:25.376Z,5.70
2019-02-22T02:16:53.804Z,6.28
2019-02-22T02:19:22.214Z,6.22
2019-02-22T02:21:50.641Z,6.50
2019-02-22T02:24:19.040Z,6.40
2019-02-22T02:26:47.460Z,6.87
2019-02-22T02:29:15.866Z,5.62
2019-02-22T02:31:44.321Z,6.50
2019-02-22T02:34:12.715Z,6.42
2019-02-22T02:36:41.122Z,5.92
2019-02-22T02:39:09.525Z,6.25
2019-02-22T02:41:37.961Z,5.92
2019-02-22T02:44:06.379Z,5.72
2019-02-22T02:46:34.817Z,6.10
2019-02-22T02:49:03.248Z,6.17
2019-02-22T02:51:31.678Z,6.00
2019-02-22T02:54:00.112Z,6.20
2019-02-22T02:56:28.521Z,5.72
2019-02-22T02:58:56.944Z,6.47
2019-02-22T03:01:25.341Z,5.80
2019-02-22T03:03:53.750Z,5.80
2019-02-22T03:06:29.614Z,6.08
2019-02-22T03:08:58.008Z,6.55
2019-02-22T03:11:26.405Z,5.25
2019-02-22T03:13:54.832Z,5.75
2019-02-22T03:16:23.224Z,5.20
2019-02-22T03:18:51.650Z,5.95
2019-02-22T03:21:20.038Z,5.67
2019-02-22T03:23:48.514Z,5.60
2019-02-22T03:26:17.880Z,5.75
2019-02-22T03:28:46.287Z,5.80
2019-02-22T03:31:14.702Z,5.33
2019-02-22T03:33:43.140Z,5.35
2019-02-22T03:36:11.525Z,5.87
2019-02-22T03:38:39.929Z,5.45
2019-02-22T03:41:08.349Z,5.60
2019-02-22T03:43:36.744Z,5.28
2019-02-22T03:46:05.172Z,5.30
2019-02-22T03:48:33.569Z,5.55
2019-02-22T03:51:01.987Z,5.55
2019-02-22T03:53:32.048Z,5.62
2019-02-22T03:56:00.450Z,6.12
2019-02-22T03:58:28.879Z,5.47
2019-02-22T04:00:57.435Z,5.10
2019-02-22T04:03:25.822Z,5.42
2019-02-22T04:05:54.233Z,5.72
2019-02-22T04:08:22.646Z,5.62
2019-02-22T04:10:51.115Z,4.85
2019-02-22T04:13:19.531Z,5.28
2019-02-22T04:15:47.952Z,5.42
2019-02-22T04:18:16.361Z,5.15
2019-02-22T04:20:44.777Z,5.72
2019-02-22T04:23:13.210Z,5.28
2019-02-22T04:25:41.598Z,5.72
2019-02-22T04:28:10.037Z,5.15
2019-02-22T04:30:38.447Z,5.67
2019-02-22T04:33:06.856Z,5.22
2019-02-22T04:35:35.283Z,5.00
2019-02-22T04:38:03.678Z,5.45
2019-02-22T04:40:32.093Z,5.20
2019-02-22T04:43:00.539Z,4.95
2019-02-22T04:45:28.943Z,4.83
2019-02-22T04:47:57.399Z,5.22
2019-02-22T04:50:25.785Z,4.67
2019-02-22T04:52:54.172Z,5.28
2019-02-22T04:55:22.604Z,5.62
2019-02-22T04:57:51.028Z,5.78
2019-02-22T05:00:19.465Z,5.35
2019-02-22T05:02:47.881Z,4.83
2019-02-22T05:05:16.377Z,5.08
2019-02-22T05:07:44.791Z,5.50
2019-02-22T05:10:13.183Z,5.33
2019-02-22T05:12:41.617Z,4.63
2019-02-22T05:15:12.768Z,5.00
2019-02-22T05:17:40.181Z,5.37
2019-02-22T05:20:08.758Z,5.28
2019-02-22T05:22:37.182Z,5.30
2019-02-22T05:25:06.724Z,5.45
2019-02-22T05:27:35.153Z,4.83
2019-02-22T05:30:03.854Z,5.33
2019-02-22T05:32:32.260Z,5.12
2019-02-22T05:35:00.670Z,4.50
2019-02-22T05:37:29.087Z,5.15
2019-02-22T05:39:57.507Z,4.87
2019-02-22T05:42:28.611Z,4.70
2019-02-22T05:44:56.166Z,4.87
2019-02-22T05:47:24.574Z,4.33
2019-02-22T05:49:52.987Z,5.10
2019-02-22T05:52:21.395Z,4.67
2019-02-22T05:54:49.830Z,4.75
2019-02-22T05:57:18.235Z,4.53
2019-02-22T05:59:46.665Z,4.90
2019-02-22T06:02:15.078Z,4.75
2019-02-22T06:04:43.504Z,4.97
2019-02-22T06:07:14.475Z,4.50
2019-02-22T06:09:42.053Z,4.42
2019-02-22T06:12:10.479Z,4.37
2019-02-22T06:14:38.903Z,4.15
2019-02-22T06:17:14.656Z,4.80
2019-02-22T06:19:37.634Z,5.05
2019-02-22T06:22:06.063Z,4.53
2019-02-22T06:24:34.461Z,5.17
2019-02-22T06:27:02.892Z,4.92
2019-02-22T06:29:31.282Z,4.50
2019-02-22T06:31:59.703Z,4.65
2019-02-22T06:34:28.095Z,4.63
2019-02-22T06:37:01.660Z,4.92
2019-02-22T06:39:26.667Z,5.10
2019-02-22T06:41:55.093Z,4.58
2019-02-22T06:44:23.511Z,4.90
2019-02-22T06:46:51.929Z,4.78
2019-02-22T06:49:20.347Z,4.87
2019-02-22T06:51:48.784Z,4.37
2019-02-22T06:54:17.183Z,3.90
2019-02-22T06:56:45.609Z,4.60
2019-02-22T06:59:14.013Z,4.47
2019-02-22T07:01:42.472Z,5.00
2019-02-22T07:04:10.869Z,4.70
2019-02-22T07:06:39.255Z,4.85
2019-02-22T07:09:07.693Z,4.50
2019-02-22T07:11:38.014Z,4.25
2019-02-22T07:14:06.433Z,4.90
2019-02-22T07:16:34.833Z,4.40
2019-02-22T07:19:03.265Z,4.28
2019-02-22T07:21:40.372Z,4.03
2019-02-22T07:24:02.760Z,4.47
2019-02-22T07:26:31.205Z,4.07
2019-02-22T07:28:59.651Z,4.40
2019-02-22T07:31:28.065Z,4.33
2019-02-22T07:33:56.494Z,4.55
2019-02-22T07:36:24.948Z,4.17
2019-02-22T07:38:53.379Z,4.37
2019-02-22T07:41:21.903Z,4.50
2019-02-22T07:43:50.295Z,4.53
2019-02-22T07:46:18.693Z,4.75
2019-02-22T07:48:47.118Z,4.35
2019-02-22T07:51:15.522Z,4.27
2019-02-22T07:53:43.963Z,4.50
2019-02-22T07:56:12.357Z,4.03
2019-02-22T07:58:40.817Z,4.60
2019-02-22T08:01:09.213Z,4.03
2019-02-22T08:03:37.657Z,4.20
2019-02-22T08:06:06.064Z,4.83
2019-02-22T08:08:34.499Z,4.08
2019-02-22T08:11:02.911Z,4.15
2019-02-22T08:13:31.329Z,4.37
2019-02-22T08:15:59.734Z,4.50
2019-02-22T08:18:28.127Z,3.90
2019-02-22T08:20:56.563Z,4.50
2019-02-22T08:23:24.956Z,4.45
2019-02-22T08:25:53.377Z,4.20
2019-02-22T08:28:21.778Z,4.12
2019-02-22T08:30:50.215Z,4.40
2019-02-22T08:33:18.627Z,4.47
2019-02-22T08:35:47.066Z,4.30
2019-02-22T08:38:15.458Z,4.62
2019-02-22T08:40:43.892Z,4.03
2019-02-22T08:43:12.299Z,4.67
2019-02-22T08:45:40.844Z,4.20
2019-02-22T08:48:09.389Z,3.90
2019-02-22T08:50:37.801Z,4.47
2019-02-22T08:53:06.306Z,4.12
2019-02-22T08:55:36.663Z,4.25
2019-02-22T08:58:04.841Z,4.25
2019-02-22T09:00:33.253Z,4.00
2019-02-22T09:03:01.673Z,4.30
2019-02-22T09:05:30.071Z,3.80
2019-02-22T09:07:58.491Z,3.92
2019-02-22T09:10:26.917Z,3.93
2019-02-22T09:12:55.323Z,4.40
2019-02-22T09:15:23.719Z,4.40
2019-02-22T09:17:52.148Z,4.35
2019-02-22T09:20:20.549Z,4.08
2019-02-22T09:22:48.957Z,4.25
2019-02-22T09:25:17.398Z,4.07
2019-02-22T09:27:45.807Z,4.53
2019-02-22T09:30:14.269Z,4.22
2019-02-22T09:32:42.665Z,4.08
2019-02-22T09:35:11.645Z,4.70
2019-02-22T09:37:40.081Z,4.75
2019-02-22T09:40:14.661Z,4.65
2019-02-22T09:42:42.501Z,3.72
2019-02-22T09:45:12.442Z,4.45
2019-02-22T09:47:40.883Z,4.50
2019-02-22T09:50:15.412Z,4.20
2019-02-22T09:52:43.838Z,4.17
2019-02-22T09:55:13.787Z,4.28
2019-02-22T09:57:42.243Z,4.50
2019-02-22T10:00:13.740Z,4.22
2019-02-22T10:02:44.684Z,3.52
2019-02-22T10:05:12.437Z,4.08
2019-02-22T10:07:40.855Z,3.72
2019-02-22T10:10:10.803Z,3.60
2019-02-22T10:12:39.213Z,4.10
2019-02-22T10:15:09.360Z,3.73
2019-02-22T10:17:37.784Z,4.15
2019-02-22T10:20:08.823Z,4.30
2019-02-22T10:22:37.259Z,4.58
2019-02-22T10:25:06.597Z,4.70
2019-02-22T10:27:35.007Z,5.12
2019-02-22T10:30:04.121Z,5.20
2019-02-22T10:32:32.547Z,6.30
2019-02-22T10:35:00.975Z,5.58
2019-02-22T10:37:29.375Z,6.40
2019-02-22T10:39:57.824Z,5.53
2019-02-22T10:42:26.228Z,5.72
2019-02-22T10:44:54.651Z,5.10
2019-02-22T10:47:23.094Z,5.03
2019-02-22T10:49:51.571Z,5.25
2019-02-22T10:52:20.028Z,4.97
2019-02-22T10:54:48.425Z,5.28
2019-02-22T10:57:16.868Z,4.90
2019-02-22T10:59:45.276Z,4.78
2019-02-22T11:02:13.708Z,4.35
2019-02-22T11:04:42.132Z,4.30
2019-02-22T11:07:10.607Z,4.30
2019-02-22T11:09:39.040Z,3.85
2019-02-22T11:12:07.797Z,3.92
2019-02-22T11:14:36.225Z,4.80
2019-02-22T11:17:04.662Z,3.60
2019-02-22T11:19:33.078Z,3.77
2019-02-22T11:22:01.559Z,3.75
2019-02-22T11:24:29.980Z,3.87
2019-02-22T11:26:58.392Z,4.00
2019-02-22T11:29:26.803Z,3.27
2019-02-22T11:31:55.258Z,3.27
2019-02-22T11:34:23.782Z,3.12
2019-02-22T11:36:52.280Z,3.50
2019-02-22T11:39:20.889Z,3.62
2019-02-22T11:41:49.306Z,3.72
2019-02-22T11:44:17.697Z,3.27
2019-02-22T11:46:46.199Z,3.00
2019-02-22T11:49:14.602Z,3.00
2019-02-22T11:51:43.034Z,3.42
2019-02-22T11:54:11.427Z,3.85
2019-02-22T11:56:39.943Z,4.03
2019-02-22T11:59:08.423Z,5.40
2019-02-22T12:01:36.963Z,4.50
2019-02-22T12:04:05.498Z,7.03
2019-02-22T12:06:33.924Z,7.15
2019-02-22T12:09:02.339Z,6.50
2019-02-22T12:11:30.743Z,6.70
2019-02-22T12:13:59.201Z,6.17
2019-02-22T12:16:27.618Z,5.87
2019-02-22T12:18:56.041Z,6.40
2019-02-22T12:21:24.472Z,6.37
2019-02-22T12:23:53.104Z,5.90
2019-02-22T12:26:21.594Z,6.30
2019-02-22T12:28:50.054Z,6.12
2019-02-22T12:31:18.533Z,6.20
2019-02-22T12:33:47.119Z,5.75
2019-02-22T12:36:15.528Z,6.42
2019-02-22T12:38:43.934Z,6.97
2019-02-22T12:41:12.375Z,5.55
2019-02-22T12:43:40.798Z,6.25
2019-02-22T12:46:09.261Z,6.15
2019-02-22T12:48:37.722Z,8.48
2019-02-22T12:51:06.158Z,12.33
2019-02-22T12:53:34.600Z,8.18
2019-02-22T12:56:03.077Z,9.48
2019-02-22T12:58:31.483Z,9.25
2019-02-22T13:00:59.923Z,10.45
2019-02-22T13:03:28.597Z,9.73
2019-02-22T13:05:57.035Z,12.55
2019-02-22T13:08:25.442Z,11.85
2019-02-22T13:10:53.924Z,10.55
2019-02-22T13:13:22.337Z,9.80
2019-02-22T13:15:50.768Z,11.48
2019-02-22T13:18:19.211Z,9.00
2019-02-22T13:20:47.664Z,9.28
2019-02-22T13:23:16.088Z,8.90
2019-02-22T13:25:44.501Z,9.08
2019-02-22T13:28:12.933Z,9.10
2019-02-22T13:30:41.349Z,8.23
2019-02-22T13:33:09.792Z,8.33
2019-02-22T13:35:38.212Z,7.87
2019-02-22T13:38:06.638Z,6.92
2019-02-22T13:40:35.054Z,7.45
2019-02-22T13:43:05.282Z,6.70
2019-02-22T13:45:33.601Z,6.35
2019-02-22T13:48:02.036Z,5.80
2019-02-22T13:50:30.443Z,5.58
2019-02-22T13:52:58.883Z,4.97
2019-02-22T13:55:27.297Z,4.95
2019-02-22T13:57:55.864Z,4.92
2019-02-22T14:00:24.252Z,4.92
2019-02-22T14:02:52.695Z,4.65
2019-02-22T14:05:21.186Z,4.35
2019-02-22T14:07:56.469Z,4.05
2019-02-22T14:10:25.925Z,3.70
2019-02-22T14:12:54.324Z,3.70
2019-02-22T14:15:22.759Z,4.03
2019-02-22T14:17:51.151Z,3.62
2019-02-22T14:20:19.580Z,3.50
2019-02-22T14:22:49.626Z,3.80
2019-02-22T14:25:18.103Z,6.12
2019-02-22T14:27:46.506Z,4.50
2019-02-22T14:30:16.266Z,4.17
2019-02-22T14:32:44.695Z,3.92
2019-02-22T14:35:13.186Z,4.12
2019-02-22T14:37:41.705Z,3.77
2019-02-22T14:40:11.956Z,3.80
2019-02-22T14:42:40.336Z,4.05
2019-02-22T14:45:10.614Z,3.50
2019-02-22T14:47:39.082Z,3.87
2019-02-22T14:50:18.200Z,3.20
2019-02-22T14:52:46.702Z,3.33
2019-02-22T14:55:15.178Z,2.77
2019-02-22T14:57:45.157Z,2.98
2019-02-22T15:00:16.872Z,3.20
2019-02-22T15:02:45.319Z,3.30
2019-02-22T15:05:14.855Z,2.77
2019-02-22T15:07:43.354Z,2.80
2019-02-22T15:10:12.234Z,2.95
2019-02-22T15:12:40.651Z,2.35
2019-02-22T15:15:16.927Z,2.70
2019-02-22T15:17:52.644Z,4.20
2019-02-22T15:20:21.130Z,3.80
2019-02-22T15:22:49.580Z,3.20
2019-02-22T15:25:18.925Z,3.02
2019-02-22T15:27:47.336Z,2.72
2019-02-22T15:30:16.833Z,4.15
2019-02-22T15:32:45.274Z,3.50
2019-02-22T15:35:15.001Z,2.85
2019-02-22T15:37:43.653Z,3.72
2019-02-22T15:40:12.784Z,2.87
2019-02-22T15:42:41.226Z,2.60
2019-02-22T15:45:19.044Z,2.87
2019-02-22T15:47:48.818Z,2.95
2019-02-22T15:50:18.620Z,3.12
2019-02-22T15:52:48.280Z,2.50
2019-02-22T15:55:16.668Z,2.47
2019-02-22T15:57:45.086Z,2.58
2019-02-22T16:00:25.639Z,2.60
2019-02-22T16:02:54.118Z,3.17
2019-02-22T16:05:24.209Z,3.15
2019-02-22T16:07:52.678Z,3.42
2019-02-22T16:10:21.211Z,3.20
2019-02-22T16:12:49.803Z,2.95
2019-02-22T16:15:18.234Z,3.30
2019-02-22T16:17:46.647Z,2.77
2019-02-22T16:20:15.177Z,3.05
2019-02-22T16:22:43.646Z,3.37
2019-02-22T16:25:19.627Z,3.12
2019-02-22T16:27:42.259Z,3.37
2019-02-22T16:30:15.618Z,4.80
2019-02-22T16:32:44.029Z,3.65
2019-02-22T16:35:12.606Z,4.22
2019-02-22T16:37:41.046Z,4.87
2019-02-22T16:40:11.075Z,4.10
2019-02-22T16:42:39.633Z,3.52
2019-02-22T16:45:12.690Z,4.00
2019-02-22T16:47:41.122Z,3.35
2019-02-22T16:50:12.231Z,4.12
2019-02-22T16:52:40.884Z,3.35
2019-02-22T16:55:14.836Z,3.25
2019-02-22T16:57:43.266Z,3.60
2019-02-22T17:00:13.719Z,3.37
2019-02-22T17:02:43.006Z,2.75
2019-02-22T17:05:13.769Z,2.90
2019-02-22T17:07:42.206Z,3.37
2019-02-22T17:10:11.586Z,2.47
2019-02-22T17:12:40.018Z,2.70
2019-02-22T17:15:10.769Z,2.87
2019-02-22T17:17:39.225Z,2.58
2019-02-22T17:20:10.095Z,2.30
2019-02-22T17:22:38.581Z,2.35
2019-02-22T17:25:12.880Z,2.25
2019-02-22T17:27:41.314Z,1.90
2019-02-22T17:30:17.230Z,2.25
2019-02-22T17:32:46.120Z,2.02
2019-02-22T17:35:14.548Z,1.67
2019-02-22T17:37:42.951Z,2.00
2019-02-22T17:40:23.145Z,1.70
2019-02-22T17:42:51.557Z,1.75
2019-02-22T17:45:19.995Z,1.80
2019-02-22T17:47:48.405Z,2.08
2019-02-22T17:50:16.836Z,1.95
2019-02-22T17:52:45.277Z,2.00
2019-02-22T17:55:13.764Z,1.90
2019-02-22T17:57:42.179Z,1.80
2019-02-22T18:00:15.249Z,1.70
2019-02-22T18:02:43.697Z,2.00
2019-02-22T18:05:12.233Z,2.20
2019-02-22T18:07:40.632Z,2.15
2019-02-22T18:10:10.516Z,2.42
2019-02-22T18:12:38.926Z,2.12
2019-02-22T18:15:15.315Z,2.10
2019-02-22T18:17:46.764Z,2.35
2019-02-22T18:20:15.260Z,2.45
2019-02-22T18:22:43.686Z,2.00
2019-02-22T18:25:12.138Z,1.95
2019-02-22T18:27:40.536Z,1.98
2019-02-22T18:30:19.980Z,2.15
2019-02-22T18:32:48.402Z,1.90
2019-02-22T18:35:16.893Z,1.72
2019-02-22T18:37:45.308Z,2.30
2019-02-22T18:40:19.059Z,2.27
2019-02-22T18:42:47.475Z,2.08
2019-02-22T18:45:15.892Z,2.60
2019-02-22T18:47:44.312Z,2.98
2019-02-22T18:50:12.712Z,3.72
2019-02-22T18:52:41.139Z,5.62
2019-02-22T18:55:10.740Z,4.03
2019-02-22T18:57:39.154Z,3.27
2019-02-22T19:00:11.397Z,2.98
2019-02-22T19:02:39.818Z,3.33
2019-02-22T19:05:09.365Z,3.87
2019-02-22T19:07:37.792Z,4.17
2019-02-22T19:10:09.341Z,5.87
2019-02-22T19:12:39.166Z,5.80
2019-02-22T19:15:10.385Z,4.58
2019-02-22T19:17:38.828Z,4.40
2019-02-22T19:20:15.997Z,4.20
2019-02-22T19:22:44.435Z,5.05
2019-02-22T19:25:13.014Z,4.83
2019-02-22T19:27:41.461Z,4.85
2019-02-22T19:30:13.038Z,4.75
2019-02-22T19:32:41.476Z,5.55
2019-02-22T19:35:09.922Z,5.55
2019-02-22T19:37:38.327Z,5.08
2019-02-22T19:40:10.409Z,7.05
2019-02-22T19:42:38.809Z,5.62
2019-02-22T19:45:09.436Z,5.45
2019-02-22T19:47:41.748Z,5.00
2019-02-22T19:50:13.236Z,6.90
2019-02-22T19:52:41.725Z,7.45
2019-02-22T19:55:15.041Z,5.03
2019-02-22T19:57:43.449Z,5.83
2019-02-22T20:00:18.669Z,6.55
2019-02-22T20:02:47.226Z,6.45
2019-02-22T20:05:16.100Z,5.28
2019-02-22T20:07:44.610Z,4.83
2019-02-22T20:10:21.218Z,4.65
2019-02-22T20:12:49.629Z,5.20
2019-02-22T20:15:18.572Z,4.50
2019-02-22T20:17:53.838Z,4.25
2019-02-22T20:20:20.586Z,4.65
2019-02-22T20:22:49.004Z,3.75
2019-02-22T20:25:17.410Z,4.08
2019-02-22T20:27:45.871Z,4.53
2019-02-22T20:30:16.773Z,4.45
2019-02-22T20:32:45.189Z,3.83
2019-02-22T20:35:22.209Z,3.80
2019-02-22T20:37:52.982Z,4.17
2019-02-22T20:40:20.770Z,4.35
2019-02-22T20:42:49.192Z,4.90
2019-02-22T20:45:17.616Z,4.97
2019-02-22T20:47:46.065Z,5.42
2019-02-22T20:50:16.193Z,5.08
2019-02-22T20:52:44.590Z,4.78
2019-02-22T20:55:13.185Z,4.75
2019-02-22T20:57:41.612Z,4.87
2019-02-22T21:00:23.639Z,4.55
2019-02-22T21:02:52.068Z,4.75
2019-02-22T21:05:20.490Z,5.85
2019-02-22T21:07:48.896Z,4.55
2019-02-22T21:10:20.393Z,4.28
2019-02-22T21:12:48.791Z,4.25
2019-02-22T21:15:17.243Z,4.95
2019-02-22T21:17:45.655Z,4.12
2019-02-22T21:20:19.522Z,3.92
2019-02-22T21:22:48.019Z,4.92
2019-02-22T21:25:16.584Z,4.20
2019-02-22T21:27:44.996Z,3.95
2019-02-22T21:30:15.236Z,3.85
2019-02-22T21:32:43.761Z,4.58
2019-02-22T21:35:12.326Z,4.10
2019-02-22T21:37:42.266Z,3.45
2019-02-22T21:40:11.745Z,4.58
2019-02-22T21:42:40.341Z,3.20
2019-02-22T21:45:13.587Z,4.17
2019-02-22T21:47:53.779Z,4.37
2019-02-22T21:50:18.333Z,3.85
2019-02-22T21:52:47.109Z,3.90
2019-02-22T21:55:16.214Z,4.92
2019-02-22T21:57:44.625Z,3.83
2019-02-22T22:00:20.605Z,4.35
2019-02-22T22:02:49.036Z,4.35
2019-02-22T22:05:17.466Z,4.35
2019-02-22T22:07:45.865Z,4.75
2019-02-22T22:10:14.323Z,4.62
2019-02-22T22:12:42.816Z,3.90
2019-02-22T22:15:12.754Z,4.10
2019-02-22T22:17:41.180Z,4.17
2019-02-22T22:20:10.525Z,3.60
2019-02-22T22:22:39.473Z,4.25
2019-02-22T22:25:15.121Z,4.50
2019-02-22T22:27:43.535Z,4.33
2019-02-22T22:30:14.217Z,4.28
2019-02-22T22:32:42.724Z,4.30
2019-02-22T22:35:16.375Z,4.12
2019-02-22T22:37:44.813Z,4.30
2019-02-22T22:40:13.319Z,4.20
2019-02-22T22:42:41.745Z,4.45
2019-02-22T22:45:14.512Z,4.20
2019-02-22T22:47:42.945Z,4.28
2019-02-22T22:50:12.987Z,3.87
2019-02-22T22:52:41.423Z,4.05
2019-02-22T22:55:10.984Z,4.55
2019-02-22T22:57:39.379Z,3.72
2019-02-22T23:00:30.650Z,4.20
2019-02-22T23:02:59.157Z,4.15
2019-02-22T23:05:27.556Z,4.70
2019-02-22T23:07:55.994Z,4.05
2019-02-22T23:10:24.435Z,4.20
2019-02-22T23:12:52.875Z,4.33
2019-02-22T23:15:21.336Z,4.62
2019-02-22T23:17:49.754Z,4.08
2019-02-22T23:20:18.146Z,4.45
2019-02-22T23:22:46.579Z,4.80
2019-02-22T23:25:14.975Z,4.33
2019-02-22T23:27:43.393Z,4.78
2019-02-22T23:30:11.858Z,4.80
2019-02-22T23:32:40.288Z,4.50
2019-02-22T23:35:08.773Z,4.75
2019-02-22T23:37:37.181Z,4.20
2019-02-22T23:40:06.045Z,4.15
2019-02-22T23:42:34.437Z,4.55
2019-02-22T23:45:02.863Z,4.17
2019-02-22T23:47:31.289Z,4.30
2019-02-22T23:49:59.683Z,4.00
2019-02-22T23:52:28.116Z,4.25
2019-02-22T23:54:56.536Z,4.08
2019-02-22T23:57:25.015Z,4.33
2019-02-22T23:59:53.546Z,3.80
